Time;durP1;ratioP1;P1;durP2;ratioP2;P2;SDS_P1;SDS_P2;PMS_P1;PMS_P2;Temp;Humidity;BMP_temperature;BMP_pressure;BME280_temperature;BME280_humidity;BME280_pressure;Samples;Min_cycle;Max_cycle;Signal;HPM_P1;HPM_P2
2023/12/15 00:01:00;;;;;;;1.80;1.70;;;22.50;59.70;;;;;;5072602;28;20507;-86
2023/12/15 00:03:27;;;;;;;1.90;1.80;;;22.50;59.80;;;;;;5072747;28;20946;-86
2023/12/15 00:05:54;;;;;;;1.80;1.60;;;22.40;59.80;;;;;;5072819;28;20475;-86
2023/12/15 00:08:22;;;;;;;2.07;1.97;;;22.40;59.70;;;;;;5072589;28;20480;-86
2023/12/15 00:10:49;;;;;;;2.03;1.70;;;22.40;59.70;;;;;;5072649;28;20441;-86
2023/12/15 00:13:16;;;;;;;1.60;1.50;;;22.40;59.80;;;;;;5072512;28;20527;-86
2023/12/15 00:15:43;;;;;;;1.47;1.30;;;22.40;59.80;;;;;;5072632;28;20432;-86
2023/12/15 00:18:10;;;;;;;2.53;1.90;;;22.40;59.80;;;;;;5072697;28;20436;-86
2023/12/15 00:20:37;;;;;;;1.90;1.70;;;22.30;59.80;;;;;;5072561;28;20523;-86
2023/12/15 00:23:03;;;;;;;1.60;1.50;;;22.40;59.80;;;;;;5072536;28;20429;-86
2023/12/15 00:25:32;;;;;;;1.50;1.40;;;22.40;59.80;;;;;;5071742;28;20543;-85
2023/12/15 00:27:59;;;;;;;1.60;1.50;;;22.30;59.60;;;;;;5058918;28;20494;-86
2023/12/15 00:30:26;;;;;;;1.60;1.50;;;22.30;59.60;;;;;;5076560;28;20447;-86
2023/12/15 00:32:54;;;;;;;1.70;1.60;;;22.30;59.70;;;;;;5076732;28;20444;-86
2023/12/15 00:35:20;;;;;;;1.40;1.30;;;22.30;59.80;;;;;;5076564;28;20527;-86
2023/12/15 00:37:47;;;;;;;1.50;1.40;;;22.40;59.80;;;;;;5076475;28;20432;-86
2023/12/15 00:40:14;;;;;;;1.40;1.30;;;22.30;59.80;;;;;;5076455;28;20939;-86
2023/12/15 00:42:42;;;;;;;1.93;1.83;;;22.30;59.90;;;;;;5076605;28;20831;-87
2023/12/15 00:45:10;;;;;;;2.03;1.40;;;22.30;59.90;;;;;;5076311;28;20468;-86
2023/12/15 00:47:37;;;;;;;1.83;1.70;;;22.30;59.90;;;;;;5076178;28;20944;-86
2023/12/15 00:50:05;;;;;;;1.90;1.80;;;22.30;60.70;;;;;;5076204;28;20440;-87
2023/12/15 00:52:31;;;;;;;1.47;1.37;;;22.30;59.90;;;;;;5076447;28;20437;-86
2023/12/15 00:54:58;;;;;;;1.97;1.50;;;22.30;59.90;;;;;;5075944;28;20460;-86
2023/12/15 00:57:25;;;;;;;1.43;1.33;;;22.20;59.70;;;;;;5076178;28;20443;-87
2023/12/15 00:59:53;;;;;;;1.93;1.80;;;22.20;59.80;;;;;;5075935;28;20472;-87
2023/12/15 01:02:20;;;;;;;2.33;1.40;;;22.20;59.80;;;;;;5076266;28;20535;-86
2023/12/15 01:04:46;;;;;;;1.50;1.40;;;22.20;59.80;;;;;;5076063;28;20428;-86
2023/12/15 01:07:13;;;;;;;1.57;1.40;;;22.20;59.90;;;;;;5075935;28;20480;-86
2023/12/15 01:09:40;;;;;;;1.53;1.43;;;22.20;59.90;;;;;;5076007;28;20915;-86
2023/12/15 01:12:07;;;;;;;1.90;1.70;;;22.20;59.90;;;;;;5076086;28;20448;-87
2023/12/15 01:14:34;;;;;;;1.30;1.20;;;22.20;60.00;;;;;;5075911;28;20443;-86
2023/12/15 01:17:02;;;;;;;1.43;1.33;;;22.20;60.00;;;;;;5075825;28;20442;-86
2023/12/15 01:19:29;;;;;;;2.17;1.40;;;22.30;60.00;;;;;;5076033;28;20498;-86
2023/12/15 01:21:56;;;;;;;1.50;1.40;;;22.20;59.90;;;;;;5075918;28;20536;-86
2023/12/15 01:24:22;;;;;;;1.57;1.40;;;22.30;60.00;;;;;;5075873;28;20463;-86
2023/12/15 01:26:49;;;;;;;1.50;1.40;;;22.30;60.00;;;;;;5075627;28;20437;-86
2023/12/15 01:29:16;;;;;;;1.23;1.13;;;22.20;59.90;;;;;;5075482;28;20440;-86
2023/12/15 01:31:43;;;;;;;2.00;1.60;;;22.20;59.90;;;;;;5075817;28;20809;-86
2023/12/15 01:34:11;;;;;;;2.00;1.63;;;22.20;59.80;;;;;;5075535;28;20432;-86
2023/12/15 01:36:38;;;;;;;1.50;1.40;;;22.30;60.00;;;;;;5075269;28;20920;-86
2023/12/15 01:39:05;;;;;;;1.40;1.30;;;22.30;60.00;;;;;;5075492;28;20438;-86
2023/12/15 01:41:31;;;;;;;1.50;1.40;;;22.30;59.90;;;;;;5075527;28;20475;-86
2023/12/15 01:43:58;;;;;;;1.87;1.70;;;22.30;59.90;;;;;;5075631;28;20807;-86
2023/12/15 01:46:25;;;;;;;1.90;1.70;;;22.30;59.90;;;;;;5075465;28;20446;-91
2023/12/15 01:48:53;;;;;;;1.47;1.37;;;22.30;59.90;;;;;;5075275;28;20487;-86
2023/12/15 01:51:21;;;;;;;1.30;1.20;;;22.30;59.90;;;;;;5075211;28;20878;-86
2023/12/15 01:53:48;;;;;;;1.40;1.30;;;22.30;59.90;;;;;;5075417;28;20528;-86
2023/12/15 01:56:15;;;;;;;1.63;1.53;;;22.30;60.00;;;;;;5074988;28;20457;-86
2023/12/15 01:58:42;;;;;;;1.50;1.40;;;22.40;59.90;;;;;;5075084;28;20444;-86
2023/12/15 02:01:09;;;;;;;1.30;1.20;;;22.30;59.80;;;;;;5074780;28;20826;-87
2023/12/15 02:03:35;;;;;;;1.60;1.50;;;22.30;59.80;;;;;;5075214;28;20442;-87
2023/12/15 02:06:02;;;;;;;2.23;1.27;;;22.30;59.80;;;;;;5074818;28;20437;-86
2023/12/15 02:08:30;;;;;;;1.53;1.30;;;22.30;59.90;;;;;;5074702;28;20480;-86
2023/12/15 02:10:57;;;;;;;1.57;1.47;;;22.30;59.80;;;;;;5074892;28;20432;-86
2023/12/15 02:13:24;;;;;;;1.47;1.33;;;22.40;59.80;;;;;;5074613;28;21025;-86
2023/12/15 02:15:51;;;;;;;1.57;1.47;;;22.30;59.80;;;;;;5074935;28;20444;-86
2023/12/15 02:18:18;;;;;;;2.27;2.07;;;22.30;59.70;;;;;;5074790;28;20794;-87
2023/12/15 02:20:44;;;;;;;1.30;1.20;;;22.30;59.70;;;;;;5074842;28;20432;-87
2023/12/15 02:23:13;;;;;;;1.27;1.17;;;22.30;59.80;;;;;;5074161;28;20448;-86
2023/12/15 02:25:39;;;;;;;1.70;1.50;;;22.30;59.80;;;;;;5074261;28;20471;-87
2023/12/15 02:28:06;;;;;;;2.80;1.30;;;22.30;59.70;;;;;;5074343;28;20488;-86
2023/12/15 02:30:33;;;;;;;1.30;1.20;;;22.30;60.50;;;;;;5074338;28;20447;-86
2023/12/15 02:33:01;;;;;;;2.03;1.70;;;22.30;59.80;;;;;;5074340;28;20448;-87
2023/12/15 02:35:28;;;;;;;1.90;1.30;;;22.30;59.80;;;;;;5074230;28;20512;-86
2023/12/15 02:37:54;;;;;;;1.30;1.20;;;22.30;59.70;;;;;;5074197;28;20531;-86
2023/12/15 02:40:23;;;;;;;1.60;1.50;;;22.30;59.60;;;;;;5074122;28;20439;-86
2023/12/15 02:42:49;;;;;;;1.40;1.30;;;22.30;59.70;;;;;;5074205;28;20439;-86
2023/12/15 02:45:16;;;;;;;1.30;1.20;;;22.30;59.70;;;;;;5074222;28;20515;-86
2023/12/15 02:47:43;;;;;;;1.20;1.10;;;22.40;59.80;;;;;;5074055;28;20480;-87
2023/12/15 02:50:12;;;;;;;1.60;1.50;;;22.30;59.70;;;;;;5073668;28;20429;-86
2023/12/15 02:52:39;;;;;;;1.40;1.30;;;22.30;59.70;;;;;;5073978;28;20432;-86
2023/12/15 02:55:06;;;;;;;1.40;1.30;;;22.30;59.70;;;;;;5073832;28;20461;-86
2023/12/15 02:57:35;;;;;;;1.37;1.27;;;22.30;59.60;;;;;;5073826;28;20494;-87
2023/12/15 03:00:02;;;;;;;1.53;1.43;;;22.30;59.70;;;;;;5073553;28;20472;-86
2023/12/15 03:02:28;;;;;;;1.23;1.13;;;22.30;59.60;;;;;;5074065;28;20464;-86
2023/12/15 03:04:55;;;;;;;1.60;1.50;;;22.30;59.70;;;;;;5073916;28;20436;-86
2023/12/15 03:07:22;;;;;;;1.40;1.30;;;22.30;59.70;;;;;;5073750;28;21031;-86
2023/12/15 03:09:49;;;;;;;1.87;1.77;;;22.30;59.60;;;;;;5073804;28;20920;-86
2023/12/15 03:12:15;;;;;;;1.50;1.40;;;22.40;59.70;;;;;;5073752;28;20519;-93
2023/12/15 03:14:44;;;;;;;1.40;1.30;;;22.30;59.70;;;;;;5073502;28;20433;-87
2023/12/15 03:17:10;;;;;;;1.60;1.50;;;22.30;59.70;;;;;;5073500;28;20444;-86
2023/12/15 03:19:39;;;;;;;1.33;1.23;;;22.30;59.70;;;;;;5073661;28;20443;-86
2023/12/15 03:22:06;;;;;;;1.90;1.70;;;22.40;59.70;;;;;;5073442;28;20448;-86
2023/12/15 03:24:32;;;;;;;1.60;1.40;;;22.40;59.70;;;;;;5073459;28;20827;-87
2023/12/15 03:26:59;;;;;;;1.50;1.33;;;22.40;59.70;;;;;;5073549;28;20432;-86
2023/12/15 03:29:26;;;;;;;1.40;1.30;;;22.40;59.70;;;;;;5073251;28;20488;-90
2023/12/15 03:31:54;;;;;;;2.20;1.40;;;22.40;59.60;;;;;;5073603;28;20798;-86
2023/12/15 03:34:21;;;;;;;1.80;1.40;;;22.40;59.60;;;;;;5073548;28;20448;-86
2023/12/15 03:36:47;;;;;;;1.30;1.17;;;22.40;59.70;;;;;;5073268;28;20433;-86
2023/12/15 03:39:14;;;;;;;1.70;1.53;;;22.40;59.70;;;;;;5073068;28;20428;-86
2023/12/15 03:41:41;;;;;;;1.60;1.50;;;22.30;59.60;;;;;;5073241;28;20435;-89
2023/12/15 03:44:08;;;;;;;1.30;1.20;;;22.30;59.60;;;;;;5073188;28;20424;-86
2023/12/15 03:46:35;;;;;;;2.00;1.47;;;22.30;59.60;;;;;;5073376;28;20443;-87
2023/12/15 03:49:03;;;;;;;1.80;1.40;;;22.30;59.60;;;;;;5073249;28;20484;-93
2023/12/15 03:51:29;;;;;;;1.50;1.40;;;22.30;59.60;;;;;;5073602;28;20433;-86
2023/12/15 03:53:56;;;;;;;1.90;1.33;;;22.30;59.70;;;;;;5072964;28;20436;-86
2023/12/15 03:56:26;;;;;;;1.40;1.30;;;22.30;59.60;;;;;;5072985;28;20448;-89
2023/12/15 03:58:53;;;;;;;1.50;1.40;;;22.30;59.60;;;;;;5073215;28;20432;-87
2023/12/15 04:01:20;;;;;;;1.50;1.40;;;22.30;59.70;;;;;;5073009;28;20471;-86
2023/12/15 04:03:47;;;;;;;1.83;1.50;;;22.30;59.60;;;;;;5076957;28;20444;-87
2023/12/15 04:06:15;;;;;;;1.30;1.20;;;22.30;59.60;;;;;;5077190;28;20876;-86
2023/12/15 04:08:42;;;;;;;1.50;1.40;;;22.30;59.70;;;;;;5077213;28;20494;-87
2023/12/15 04:11:09;;;;;;;1.50;1.40;;;22.30;59.60;;;;;;5077180;28;20436;-87
2023/12/15 04:13:36;;;;;;;1.73;1.63;;;22.30;59.60;;;;;;5077236;28;20433;-87
2023/12/15 04:16:05;;;;;;;1.53;1.30;;;22.30;59.60;;;;;;5077051;28;20464;-86
2023/12/15 04:18:32;;;;;;;1.50;1.40;;;22.30;59.60;;;;;;5077087;28;20440;-86
2023/12/15 04:21:00;;;;;;;1.67;1.50;;;22.30;59.60;;;;;;5077200;28;20804;-87
2023/12/15 04:23:28;;;;;;;1.50;1.40;;;22.30;59.70;;;;;;5076958;28;20451;-87
2023/12/15 04:25:57;;;;;;;1.70;1.60;;;22.30;59.70;;;;;;5076733;28;20460;-87
2023/12/15 04:28:25;;;;;;;1.50;1.30;;;22.30;59.60;;;;;;5076879;28;20491;-92
2023/12/15 04:30:52;;;;;;;1.70;1.53;;;22.30;59.70;;;;;;5076684;28;20437;-86
2023/12/15 04:33:18;;;;;;;1.60;1.50;;;22.30;59.70;;;;;;5077347;28;20452;-87
2023/12/15 04:35:45;;;;;;;1.50;1.40;;;22.30;59.70;;;;;;5076612;28;20762;-86
2023/12/15 04:38:12;;;;;;;1.40;1.30;;;22.30;59.70;;;;;;5076836;28;20440;-86
2023/12/15 04:40:40;;;;;;;1.40;1.30;;;22.30;59.70;;;;;;5076492;28;20798;-86
2023/12/15 04:43:07;;;;;;;1.17;1.07;;;22.30;59.70;;;;;;5076529;28;20442;-86
2023/12/15 04:45:34;;;;;;;1.60;1.27;;;22.30;59.70;;;;;;5076352;28;20927;-87
2023/12/15 04:48:01;;;;;;;1.70;1.60;;;22.30;59.70;;;;;;5076927;28;20579;-87
2023/12/15 04:50:27;;;;;;;1.30;1.10;;;22.30;59.80;;;;;;5076596;28;20440;-86
2023/12/15 04:52:55;;;;;;;1.53;1.43;;;22.30;59.70;;;;;;5076503;28;20446;-86
2023/12/15 04:55:21;;;;;;;1.60;1.50;;;22.30;59.70;;;;;;5076126;28;20464;-85
2023/12/15 04:57:49;;;;;;;1.50;1.40;;;22.30;59.70;;;;;;5076348;28;20527;-86
2023/12/15 05:00:17;;;;;;;1.43;1.33;;;22.30;59.70;;;;;;5075873;28;20490;-86
2023/12/15 05:02:44;;;;;;;1.70;1.50;;;22.30;59.60;;;;;;5076423;28;20436;-86
2023/12/15 05:05:10;;;;;;;1.27;1.17;;;22.50;59.80;;;;;;5076143;28;20781;-87
2023/12/15 05:07:40;;;;;;;1.50;1.40;;;22.30;59.60;;;;;;5076192;28;20442;-86
2023/12/15 05:10:08;;;;;;;1.53;1.40;;;22.40;59.70;;;;;;5075850;28;20488;-86
2023/12/15 05:12:35;;;;;;;1.37;1.27;;;22.40;59.60;;;;;;5075401;28;20436;-86
2023/12/15 05:15:03;;;;;;;1.43;1.30;;;22.40;59.60;;;;;;5076106;28;20432;-86
2023/12/15 05:17:30;;;;;;;1.50;1.40;;;22.40;59.60;;;;;;5075839;28;20927;-87
2023/12/15 05:19:57;;;;;;;1.37;1.27;;;22.40;59.50;;;;;;5076048;28;20447;-87
2023/12/15 05:22:24;;;;;;;1.30;1.10;;;22.50;59.60;;;;;;5075643;28;20946;-87
2023/12/15 05:24:51;;;;;;;1.60;1.37;;;22.40;59.50;;;;;;5075895;28;20463;-86
2023/12/15 05:27:18;;;;;;;1.47;1.37;;;22.50;59.70;;;;;;5075755;28;20470;-86
2023/12/15 05:29:46;;;;;;;1.93;1.60;;;22.50;59.60;;;;;;5075567;28;20949;-87
2023/12/15 05:32:15;;;;;;;1.30;1.20;;;22.50;59.50;;;;;;5075895;28;20946;-86
2023/12/15 05:34:42;;;;;;;1.57;1.47;;;22.50;59.50;;;;;;5075388;28;20993;-87
2023/12/15 05:37:10;;;;;;;1.40;1.30;;;22.50;59.50;;;;;;5075697;28;20447;-91
2023/12/15 05:39:37;;;;;;;1.23;1.13;;;22.50;59.50;;;;;;5075683;28;20794;-85
2023/12/15 05:42:04;;;;;;;1.63;1.20;;;22.50;59.50;;;;;;5075437;28;20435;-87
2023/12/15 05:44:31;;;;;;;1.97;1.40;;;22.50;59.30;;;;;;5075376;28;20437;-87
2023/12/15 05:46:58;;;;;;;1.40;1.30;;;22.50;59.50;;;;;;5075376;28;20445;-86
2023/12/15 05:49:26;;;;;;;3.37;1.30;;;22.50;59.50;;;;;;5073663;28;20488;-87
2023/12/15 05:51:54;;;;;;;1.67;1.30;;;22.50;59.50;;;;;;5073291;28;20436;-88
2023/12/15 05:54:21;;;;;;;1.73;1.50;;;22.50;59.50;;;;;;5073209;28;20457;-86
2023/12/15 05:56:48;;;;;;;2.00;1.50;;;22.50;59.60;;;;;;5074276;28;20459;-87
2023/12/15 05:59:14;;;;;;;1.60;1.50;;;22.50;59.60;;;;;;5074287;28;20807;-87
2023/12/15 06:01:41;;;;;;;2.63;1.20;;;22.50;59.60;;;;;;5074503;28;20453;-87
2023/12/15 06:04:08;;;;;;;1.50;1.30;;;22.50;59.70;;;;;;5073481;28;20444;-86
2023/12/15 06:06:36;;;;;;;1.30;1.20;;;22.50;59.60;;;;;;5072487;28;20447;-86
2023/12/15 06:09:03;;;;;;;1.47;1.37;;;22.60;59.70;;;;;;5072277;28;20496;-87
2023/12/15 06:11:30;;;;;;;1.83;1.37;;;22.50;59.70;;;;;;5072288;28;20440;-87
2023/12/15 06:13:57;;;;;;;5.20;1.70;;;22.50;59.70;;;;;;5072244;28;20443;-87
2023/12/15 06:16:24;;;;;;;1.60;1.50;;;22.50;59.70;;;;;;5072677;28;20441;-87
2023/12/15 06:18:50;;;;;;;1.97;1.87;;;22.70;59.90;;;;;;5072480;28;20429;-87
2023/12/15 06:21:21;;;;;;;4.03;1.40;;;22.60;59.80;;;;;;5072709;28;20444;-87
2023/12/15 06:23:50;;;;;;;1.80;1.37;;;22.60;59.80;;;;;;5073982;28;20445;-87
2023/12/15 06:26:20;;;;;;;1.63;1.47;;;22.60;59.90;;;;;;5073500;28;20436;-87
2023/12/15 06:28:47;;;;;;;2.70;1.37;;;22.60;59.90;;;;;;5074044;28;20553;-87
2023/12/15 06:31:14;;;;;;;1.50;1.40;;;22.60;59.90;;;;;;5074188;28;20433;-87
2023/12/15 06:33:41;;;;;;;4.90;1.43;;;22.60;59.90;;;;;;5073952;28;20436;-87
2023/12/15 06:36:09;;;;;;;1.43;1.33;;;22.60;59.80;;;;;;5073999;28;20439;-87
2023/12/15 06:38:37;;;;;;;1.60;1.50;;;22.60;59.70;;;;;;5074164;28;20437;-87
2023/12/15 06:41:06;;;;;;;1.93;1.80;;;22.80;59.90;;;;;;5072751;28;20447;-92
2023/12/15 06:43:39;;;;;;;1.63;1.53;;;22.60;59.70;;;;;;5071748;28;20468;-94
2023/12/15 06:46:06;;;;;;;1.90;1.47;;;22.60;58.60;;;;;;5065862;28;20445;-85
2023/12/15 06:48:33;;;;;;;1.40;1.30;;;22.60;59.10;;;;;;5069399;28;21326;-86
2023/12/15 06:50:59;;;;;;;3.37;2.10;;;22.60;59.70;;;;;;5071084;28;20791;-84
2023/12/15 06:53:26;;;;;;;1.50;1.40;;;22.60;59.80;;;;;;5071954;28;20437;-85
2023/12/15 06:55:53;;;;;;;1.60;1.50;;;22.50;59.90;;;;;;5072042;28;20982;-85
2023/12/15 06:58:21;;;;;;;1.90;1.70;;;22.60;60.00;;;;;;5073419;28;20463;-85
2023/12/15 07:00:48;;;;;;;1.53;1.40;;;22.60;60.00;;;;;;5071866;28;20468;-85
2023/12/15 07:03:15;;;;;;;1.70;1.60;;;22.60;60.00;;;;;;5071271;28;20455;-84
2023/12/15 07:05:42;;;;;;;2.47;1.70;;;22.70;60.10;;;;;;5071436;28;20511;-85
2023/12/15 07:08:09;;;;;;;1.40;1.30;;;22.60;60.10;;;;;;5071219;28;20497;-84
2023/12/15 07:10:35;;;;;;;2.63;1.47;;;22.60;60.10;;;;;;5070472;28;21010;-84
2023/12/15 07:13:02;;;;;;;1.70;1.60;;;22.60;60.10;;;;;;5071612;28;20437;-85
2023/12/15 07:15:30;;;;;;;1.40;1.30;;;22.60;60.00;;;;;;5071875;28;20690;-85
2023/12/15 07:17:57;;;;;;;1.80;1.67;;;22.60;60.10;;;;;;5071539;28;20819;-85
2023/12/15 07:20:25;;;;;;;1.50;1.40;;;22.60;60.10;;;;;;5071873;28;20441;-84
2023/12/15 07:22:52;;;;;;;1.57;1.47;;;22.60;60.10;;;;;;5073450;28;20444;-84
2023/12/15 07:25:19;;;;;;;2.00;1.40;;;22.60;60.10;;;;;;5073070;28;20460;-85
2023/12/15 07:27:46;;;;;;;2.63;1.70;;;22.60;60.00;;;;;;5073039;28;20468;-85
2023/12/15 07:30:13;;;;;;;1.50;1.40;;;22.70;60.20;;;;;;5073109;28;20819;-85
2023/12/15 07:32:41;;;;;;;1.60;1.50;;;22.60;60.00;;;;;;5073138;28;20961;-85
2023/12/15 07:35:08;;;;;;;1.90;1.70;;;22.60;60.00;;;;;;5073045;28;20429;-85
2023/12/15 07:37:35;;;;;;;1.63;1.53;;;22.60;60.00;;;;;;5072952;28;20436;-85
2023/12/15 07:40:03;;;;;;;1.70;1.60;;;22.60;60.00;;;;;;5073217;28;20436;-92
2023/12/15 07:42:30;;;;;;;1.47;1.37;;;22.60;60.00;;;;;;5072935;28;20440;-85
2023/12/15 07:44:57;;;;;;;1.50;1.40;;;22.70;60.10;;;;;;5073042;28;20812;-85
2023/12/15 07:47:24;;;;;;;1.53;1.40;;;22.60;59.90;;;;;;5072964;28;20954;-84
2023/12/15 07:49:52;;;;;;;1.50;1.40;;;22.60;60.00;;;;;;5072709;28;20494;-90
2023/12/15 07:52:19;;;;;;;1.53;1.43;;;22.60;59.90;;;;;;5072890;28;20490;-90
2023/12/15 07:54:45;;;;;;;1.90;1.80;;;22.60;59.90;;;;;;5072852;28;20452;-85
2023/12/15 07:57:12;;;;;;;1.70;1.60;;;22.60;60.00;;;;;;5072880;28;20424;-85
2023/12/15 07:59:39;;;;;;;2.53;1.57;;;22.70;60.00;;;;;;5072576;28;20564;-85
2023/12/15 08:02:07;;;;;;;1.63;1.53;;;22.70;60.00;;;;;;5072773;28;20512;-84
2023/12/15 08:04:33;;;;;;;1.80;1.50;;;22.70;60.00;;;;;;5072751;28;20539;-85
2023/12/15 08:07:01;;;;;;;2.53;2.17;;;22.70;59.90;;;;;;5072758;28;20447;-85
2023/12/15 08:09:28;;;;;;;1.80;1.70;;;22.70;59.90;;;;;;5072605;28;20498;-85
2023/12/15 08:11:55;;;;;;;1.93;1.83;;;22.70;60.00;;;;;;5072761;28;20440;-85
2023/12/15 08:14:22;;;;;;;1.40;1.30;;;22.70;59.90;;;;;;5072655;28;20453;-85
2023/12/15 08:16:49;;;;;;;1.77;1.67;;;22.70;60.00;;;;;;5072605;28;20522;-84
2023/12/15 08:19:16;;;;;;;1.73;1.63;;;22.70;59.90;;;;;;5072684;28;20455;-85
2023/12/15 08:21:42;;;;;;;1.80;1.70;;;22.70;59.90;;;;;;5072684;28;20435;-85
2023/12/15 08:24:10;;;;;;;1.60;1.50;;;22.70;60.00;;;;;;5072522;28;20546;-85
2023/12/15 08:26:37;;;;;;;1.83;1.73;;;22.70;59.90;;;;;;5072563;28;20194;-85
2023/12/15 08:29:03;;;;;;;1.50;1.40;;;22.70;59.90;;;;;;5072362;28;20451;-85
2023/12/15 08:31:30;;;;;;;1.70;1.60;;;22.70;59.80;;;;;;5072755;28;20432;-85
2023/12/15 08:33:57;;;;;;;1.60;1.50;;;22.70;59.90;;;;;;5072663;28;20793;-85
2023/12/15 08:36:24;;;;;;;1.63;1.53;;;22.70;59.90;;;;;;5072493;28;20949;-85
2023/12/15 08:38:51;;;;;;;1.70;1.60;;;22.60;59.90;;;;;;5072407;28;20792;-84
2023/12/15 08:41:19;;;;;;;1.30;1.20;;;22.70;60.00;;;;;;5072527;28;20934;-85
2023/12/15 08:43:46;;;;;;;1.67;1.57;;;22.80;60.10;;;;;;5072470;28;20440;-91
2023/12/15 08:46:12;;;;;;;1.73;1.63;;;22.70;59.90;;;;;;5072246;28;20790;-85
2023/12/15 08:48:39;;;;;;;1.90;1.70;;;22.70;59.90;;;;;;5074136;28;20523;-85
2023/12/15 08:51:06;;;;;;;1.93;1.47;;;22.70;59.90;;;;;;5075981;28;20480;-84
2023/12/15 08:53:33;;;;;;;1.70;1.60;;;22.70;59.90;;;;;;5076010;28;20439;-85
2023/12/15 08:56:00;;;;;;;2.13;1.87;;;22.70;59.90;;;;;;5075843;28;20439;-85
2023/12/15 08:58:28;;;;;;;1.87;1.60;;;22.70;59.90;;;;;;5075909;28;20432;-85
2023/12/15 09:00:55;;;;;;;1.77;1.67;;;22.70;59.90;;;;;;5075751;28;20475;-85
2023/12/15 09:03:22;;;;;;;1.80;1.70;;;22.70;59.80;;;;;;5075855;28;20432;-84
2023/12/15 09:05:49;;;;;;;2.37;2.17;;;22.70;59.90;;;;;;5075751;28;20459;-85
2023/12/15 09:08:16;;;;;;;1.70;1.60;;;22.80;59.90;;;;;;5075827;28;20440;-85
2023/12/15 09:10:46;;;;;;;1.50;1.40;;;22.70;59.80;;;;;;5075599;28;20479;-85
2023/12/15 09:13:13;;;;;;;1.70;1.60;;;22.70;59.80;;;;;;5075649;28;20443;-84
2023/12/15 09:15:42;;;;;;;1.80;1.70;;;22.80;59.90;;;;;;5075674;28;20462;-85
2023/12/15 09:18:09;;;;;;;2.00;1.87;;;22.80;59.90;;;;;;5075741;28;20443;-85
2023/12/15 09:20:35;;;;;;;2.20;2.00;;;22.80;59.80;;;;;;5075601;28;20432;-85
2023/12/15 09:23:06;;;;;;;2.10;1.90;;;22.80;59.90;;;;;;5075753;28;20433;-84
2023/12/15 09:25:33;;;;;;;2.07;1.83;;;22.80;59.90;;;;;;5075492;28;20460;-84
2023/12/15 09:28:02;;;;;;;1.93;1.83;;;22.70;59.70;;;;;;5075384;28;20436;-84
2023/12/15 09:30:29;;;;;;;1.80;1.60;;;22.80;59.80;;;;;;5075209;28;20484;-84
2023/12/15 09:32:57;;;;;;;1.70;1.60;;;22.90;59.80;;;;;;5075325;28;20432;-86
2023/12/15 09:35:25;;;;;;;1.73;1.63;;;22.80;59.70;;;;;;5075326;28;20433;-85
2023/12/15 09:37:51;;;;;;;1.90;1.80;;;22.90;59.90;;;;;;5075240;28;20433;-85
2023/12/15 09:40:23;;;;;;;2.20;2.00;;;22.80;59.80;;;;;;5075261;28;20432;-85
2023/12/15 09:42:50;;;;;;;1.70;1.60;;;22.80;59.80;;;;;;5075278;28;20855;-85
2023/12/15 09:45:17;;;;;;;2.07;1.97;;;22.80;59.70;;;;;;5074985;28;20432;-84
2023/12/15 09:47:47;;;;;;;2.53;2.33;;;22.80;59.70;;;;;;5075044;28;20558;-85
2023/12/15 09:50:17;;;;;;;1.83;1.70;;;22.80;59.70;;;;;;5074814;28;20480;-85
2023/12/15 09:52:44;;;;;;;2.20;2.00;;;22.80;59.80;;;;;;5075347;28;20433;-85
2023/12/15 09:55:11;;;;;;;2.17;1.47;;;22.80;59.80;;;;;;5074791;28;20464;-85
2023/12/15 09:57:38;;;;;;;1.60;1.50;;;22.80;59.70;;;;;;5075045;28;20432;-85
2023/12/15 10:00:06;;;;;;;2.10;1.80;;;22.80;59.80;;;;;;5074618;28;20476;-85
2023/12/15 10:02:35;;;;;;;2.60;2.40;;;22.80;59.80;;;;;;5074853;28;20932;-84
2023/12/15 10:05:02;;;;;;;2.03;1.90;;;22.80;60.50;;;;;;5074633;28;20433;-85
2023/12/15 10:07:30;;;;;;;1.70;1.60;;;22.80;59.80;;;;;;5074605;28;20531;-84
2023/12/15 10:09:57;;;;;;;1.90;1.80;;;22.80;59.80;;;;;;5074625;28;20480;-84
2023/12/15 10:12:25;;;;;;;2.00;1.90;;;22.70;59.70;;;;;;5074590;28;20437;-84
2023/12/15 10:14:52;;;;;;;2.30;2.20;;;22.80;59.80;;;;;;5074479;28;20443;-84
2023/12/15 10:17:19;;;;;;;2.67;2.00;;;22.80;59.80;;;;;;5074455;28;20459;-84
2023/12/15 10:19:46;;;;;;;2.20;2.10;;;22.80;59.80;;;;;;5074526;28;20808;-84
2023/12/15 10:22:12;;;;;;;2.50;2.30;;;22.80;59.80;;;;;;5074379;28;20441;-84
2023/12/15 10:24:40;;;;;;;2.20;2.00;;;22.90;59.90;;;;;;5074205;28;20806;-85
2023/12/15 10:27:08;;;;;;;1.80;1.70;;;22.90;59.80;;;;;;5074386;28;20440;-88
2023/12/15 10:29:38;;;;;;;1.73;1.63;;;22.80;59.70;;;;;;5074184;28;20436;-84
2023/12/15 10:32:06;;;;;;;2.67;2.00;;;22.80;59.80;;;;;;5074408;28;20437;-84
2023/12/15 10:34:33;;;;;;;2.30;2.07;;;22.80;59.80;;;;;;5074078;28;20528;-84
2023/12/15 10:37:01;;;;;;;2.17;2.03;;;22.80;59.80;;;;;;5076928;28;20449;-88
2023/12/15 10:39:28;;;;;;;2.80;2.60;;;22.80;59.70;;;;;;5074190;28;20592;-88
2023/12/15 10:41:58;;;;;;;2.57;2.10;;;22.80;58.50;;;;;;5074034;28;20436;-88
2023/12/15 10:44:26;;;;;;;3.10;2.63;;;22.80;58.20;;;;;;5074255;28;20432;-85
2023/12/15 10:46:53;;;;;;;2.60;2.40;;;22.70;58.50;;;;;;5073669;28;20942;-84
2023/12/15 10:49:21;;;;;;;2.40;2.20;;;22.70;59.70;;;;;;5054780;28;20441;-84
2023/12/15 10:51:48;;;;;;;2.27;2.07;;;22.70;59.30;;;;;;5053808;28;20841;-83
2023/12/15 10:54:18;;;;;;;2.97;2.67;;;22.70;59.40;;;;;;5052506;28;20465;-85
2023/12/15 10:56:45;;;;;;;2.43;2.23;;;22.70;59.40;;;;;;5053026;28;20429;-91
2023/12/15 10:59:13;;;;;;;3.43;2.83;;;22.70;59.40;;;;;;5051712;28;20438;-90
2023/12/15 11:01:43;;;;;;;3.10;2.80;;;22.70;59.40;;;;;;5053600;28;20804;-85
2023/12/15 11:04:21;;;;;;;2.27;2.17;;;22.70;59.40;;;;;;5053452;28;20441;-84
2023/12/15 11:06:48;;;;;;;2.60;2.40;;;22.80;59.50;;;;;;5052782;28;20441;-85
2023/12/15 11:09:27;;;;;;;2.50;2.30;;;22.70;59.50;;;;;;5053171;28;20503;-85
2023/12/15 11:12:20;;;;;;;2.80;2.60;;;22.80;59.50;;;;;;5052977;28;20484;-85
2023/12/15 11:14:58;;;;;;;2.33;2.13;;;22.80;59.50;;;;;;5053297;28;20445;-85
2023/12/15 11:17:25;;;;;;;2.50;2.30;;;22.80;59.50;;;;;;5053379;28;20433;-85
2023/12/15 11:19:57;;;;;;;2.80;2.60;;;22.80;59.50;;;;;;5053291;28;20947;-85
2023/12/15 11:22:23;;;;;;;2.63;2.43;;;22.80;59.50;;;;;;5053196;28;20516;-89
2023/12/15 11:24:50;;;;;;;2.70;2.50;;;22.80;59.50;;;;;;5053068;28;20465;-86
2023/12/15 11:27:17;;;;;;;2.57;2.37;;;22.90;59.50;;;;;;5053082;28;20437;-84
2023/12/15 11:29:44;;;;;;;2.40;2.20;;;22.90;59.60;;;;;;5052217;28;20433;-90
2023/12/15 11:32:30;;;;;;;2.87;2.60;;;22.80;59.50;;;;;;5053162;28;20456;-84
2023/12/15 11:34:58;;;;;;;2.70;2.50;;;22.80;59.60;;;;;;5053240;28;20555;-85
2023/12/15 11:37:25;;;;;;;3.37;2.67;;;22.80;59.60;;;;;;5053241;28;20452;-84
2023/12/15 11:39:55;;;;;;;2.47;2.27;;;22.80;59.70;;;;;;5053085;28;20433;-84
2023/12/15 11:42:22;;;;;;;2.70;2.50;;;22.80;60.40;;;;;;5053075;28;20433;-84
2023/12/15 11:44:49;;;;;;;2.83;2.63;;;22.80;59.70;;;;;;5052896;28;20445;-84
2023/12/15 11:47:16;;;;;;;2.87;2.67;;;22.80;59.70;;;;;;5052935;28;20437;-84
2023/12/15 11:49:44;;;;;;;2.70;2.50;;;22.80;59.80;;;;;;5052779;28;20438;-84
2023/12/15 11:52:12;;;;;;;3.00;2.80;;;22.80;59.70;;;;;;5052828;28;20485;-84
2023/12/15 11:54:40;;;;;;;2.90;2.70;;;22.80;59.70;;;;;;5052852;28;20884;-85
2023/12/15 11:57:06;;;;;;;2.90;2.70;;;22.80;59.80;;;;;;5052919;28;20804;-84
2023/12/15 11:59:44;;;;;;;3.13;2.83;;;22.80;59.80;;;;;;5052683;28;20583;-85
2023/12/15 12:02:16;;;;;;;3.10;2.90;;;22.80;59.70;;;;;;5052976;28;20441;-84
2023/12/15 12:04:47;;;;;;;3.57;2.97;;;22.90;59.80;;;;;;5052789;28;20448;-84
2023/12/15 12:07:14;;;;;;;2.97;2.77;;;22.90;59.80;;;;;;5052829;28;20441;-85
2023/12/15 12:09:41;;;;;;;2.97;2.73;;;22.90;59.80;;;;;;5052737;28;20433;-85
2023/12/15 12:12:08;;;;;;;3.13;2.93;;;22.80;60.40;;;;;;5052632;28;20481;-84
2023/12/15 12:14:34;;;;;;;3.03;2.73;;;22.80;59.70;;;;;;5052641;28;20434;-84
2023/12/15 12:17:03;;;;;;;2.43;2.33;;;22.90;59.90;;;;;;5052719;28;20533;-85
2023/12/15 12:19:32;;;;;;;4.90;4.40;;;22.90;59.80;;;;;;5052619;28;20602;-85
2023/12/15 12:22:01;;;;;;;3.50;3.10;;;22.90;59.30;;;;;;5053810;28;20456;-84
2023/12/15 12:24:29;;;;;;;3.20;3.00;;;22.80;59.60;;;;;;5056868;28;20464;-83
2023/12/15 12:26:56;;;;;;;3.37;3.13;;;22.90;59.70;;;;;;5057997;28;20438;-85
2023/12/15 12:29:23;;;;;;;3.67;3.37;;;22.80;59.70;;;;;;5059343;28;20476;-84
2023/12/15 12:31:49;;;;;;;3.00;2.80;;;22.90;59.80;;;;;;5057571;28;20890;-84
2023/12/15 12:34:16;;;;;;;3.63;3.33;;;22.80;59.70;;;;;;5055936;28;20880;-84
2023/12/15 12:36:43;;;;;;;3.87;2.80;;;22.80;59.70;;;;;;5056525;28;20441;-84
2023/12/15 12:39:12;;;;;;;3.50;3.20;;;22.90;59.70;;;;;;5057441;28;20993;-83
2023/12/15 12:41:39;;;;;;;3.50;3.20;;;22.90;59.70;;;;;;5057494;28;20433;-84
2023/12/15 12:44:06;;;;;;;2.90;2.70;;;22.90;59.70;;;;;;5057197;28;20441;-84
2023/12/15 12:46:33;;;;;;;3.20;3.00;;;22.90;59.60;;;;;;5057003;28;20444;-83
2023/12/15 12:49:00;;;;;;;3.10;2.87;;;22.90;59.60;;;;;;5055947;28;20441;-83